Time;durP1;ratioP1;P1;durP2;ratioP2;P2;SDS_P1;SDS_P2;PMS_P1;PMS_P2;Temp;Humidity;BMP_temperature;BMP_pressure;BME280_temperature;BME280_humidity;BME280_pressure;Samples;Min_cycle;Max_cycle;Signal;HPM_P1;HPM_P2
2023/12/11 00:01:42;;;;;;;21.13;8.00;;;9.10;96.70;;;;;;4859687;29;20076;-61
2023/12/11 00:04:14;;;;;;;16.38;8.27;;;9.10;96.70;;;;;;4846832;29;20044;-61
2023/12/11 00:06:43;;;;;;;14.63;7.82;;;9.10;96.70;;;;;;4857798;29;20163;-61
2023/12/11 00:09:15;;;;;;;18.27;8.30;;;9.20;96.70;;;;;;4859220;29;20049;-62
2023/12/11 00:11:47;;;;;;;18.08;9.57;;;9.10;96.70;;;;;;4859624;29;20069;-61
2023/12/11 00:14:15;;;;;;;30.83;9.77;;;9.20;96.70;;;;;;4882018;29;20052;-61
2023/12/11 00:16:47;;;;;;;18.77;9.27;;;9.20;96.70;;;;;;4894366;29;20048;-61
2023/12/11 00:19:16;;;;;;;18.17;8.73;;;9.10;96.70;;;;;;4876510;29;20052;-61
2023/12/11 00:21:46;;;;;;;31.85;9.75;;;9.10;96.70;;;;;;4892323;29;20048;-61
2023/12/11 00:24:17;;;;;;;26.95;9.27;;;9.20;96.70;;;;;;4913790;29;20130;-61
2023/12/11 00:26:45;;;;;;;14.40;8.48;;;9.20;96.70;;;;;;4883732;29;20056;-62
2023/12/11 00:29:16;;;;;;;14.13;8.20;;;9.10;96.70;;;;;;4895562;29;20071;-62
2023/12/11 00:31:45;;;;;;;11.02;8.02;;;9.10;96.70;;;;;;4877227;29;20060;-61
2023/12/11 00:34:14;;;;;;;10.75;7.63;;;9.20;96.70;;;;;;4878697;29;20067;-62
2023/12/11 00:36:46;;;;;;;10.27;7.18;;;9.20;96.70;;;;;;4879313;29;20040;-61
2023/12/11 00:39:16;;;;;;;15.40;7.50;;;9.20;96.70;;;;;;4892130;29;20057;-61
2023/12/11 00:41:45;;;;;;;17.48;7.97;;;9.20;96.70;;;;;;4873781;29;20048;-61
2023/12/11 00:44:15;;;;;;;14.75;7.00;;;9.20;96.70;;;;;;4879914;29;20086;-62
2023/12/11 00:46:43;;;;;;;12.68;7.50;;;9.20;96.70;;;;;;4876243;29;20059;-61
2023/12/11 00:49:12;;;;;;;9.35;7.32;;;9.20;96.70;;;;;;4861122;29;20058;-61
2023/12/11 00:51:42;;;;;;;10.35;6.68;;;9.20;96.70;;;;;;4875480;29;20160;-61
2023/12/11 00:54:13;;;;;;;15.10;7.65;;;9.10;96.70;;;;;;4884446;29;20494;-62
2023/12/11 00:56:45;;;;;;;14.38;7.45;;;9.10;96.70;;;;;;4881706;29;20048;-61
2023/12/11 00:59:16;;;;;;;14.77;7.40;;;9.10;96.70;;;;;;4866574;29;20060;-61
2023/12/11 01:01:46;;;;;;;11.65;7.40;;;9.20;96.70;;;;;;4909774;29;20059;-61
2023/12/11 01:04:15;;;;;;;10.25;7.43;;;9.20;96.70;;;;;;4857345;29;20057;-61
2023/12/11 01:06:44;;;;;;;8.00;6.40;;;9.20;96.70;;;;;;4839209;29;20046;-61
2023/12/11 01:09:13;;;;;;;9.98;6.78;;;9.20;96.70;;;;;;4838429;29;20053;-61
2023/12/11 01:11:43;;;;;;;8.43;6.88;;;9.20;96.70;;;;;;4857218;29;20069;-61
2023/12/11 01:14:12;;;;;;;8.25;6.68;;;9.20;96.70;;;;;;4841951;29;20049;-61
2023/12/11 01:16:40;;;;;;;9.93;7.72;;;9.20;96.70;;;;;;4842019;29;20092;-61
2023/12/11 01:19:08;;;;;;;10.10;7.80;;;9.20;96.70;;;;;;4853146;29;20132;-61
2023/12/11 01:21:38;;;;;;;9.13;7.13;;;9.20;96.70;;;;;;4842868;29;20078;-61
2023/12/11 01:24:07;;;;;;;9.57;7.25;;;9.20;96.70;;;;;;4857735;29;20060;-61
2023/12/11 01:26:35;;;;;;;15.13;7.93;;;9.20;96.70;;;;;;4839220;29;20524;-61
2023/12/11 01:29:05;;;;;;;7.30;6.20;;;9.20;96.70;;;;;;4854845;29;20071;-61
2023/12/11 01:31:36;;;;;;;11.05;7.55;;;9.10;96.70;;;;;;4842702;29;20522;-62
2023/12/11 01:34:05;;;;;;;9.82;7.03;;;9.20;96.70;;;;;;4854810;29;20054;-61
2023/12/11 01:36:34;;;;;;;9.52;7.22;;;9.20;96.70;;;;;;4857441;29;20682;-62
2023/12/11 01:39:02;;;;;;;8.65;6.93;;;9.20;96.70;;;;;;4851727;29;20061;-62
2023/12/11 01:41:32;;;;;;;8.65;7.10;;;9.20;96.70;;;;;;4869043;29;20115;-62
2023/12/11 01:44:00;;;;;;;7.10;6.38;;;9.20;96.70;;;;;;4873400;29;20056;-62
2023/12/11 01:46:31;;;;;;;7.20;6.07;;;9.20;96.70;;;;;;4879073;29;20040;-62
2023/12/11 01:49:00;;;;;;;8.93;5.95;;;9.20;96.70;;;;;;4879901;29;20063;-62
2023/12/11 01:51:30;;;;;;;6.25;5.57;;;9.20;96.70;;;;;;4885621;29;20510;-62
2023/12/11 01:54:00;;;;;;;7.35;5.38;;;9.20;96.70;;;;;;4866695;29;20055;-62
2023/12/11 01:56:29;;;;;;;7.25;5.20;;;9.20;96.70;;;;;;4854452;29;20135;-62
2023/12/11 01:58:59;;;;;;;5.97;5.00;;;9.10;96.70;;;;;;4874101;29;20052;-62
2023/12/11 02:01:29;;;;;;;5.20;4.55;;;9.20;96.70;;;;;;4874098;29;20175;-62
2023/12/11 02:03:59;;;;;;;5.57;4.55;;;9.20;96.70;;;;;;4878853;29;20146;-61
2023/12/11 02:06:28;;;;;;;7.05;4.80;;;9.20;96.70;;;;;;4865469;29;20048;-61
2023/12/11 02:08:57;;;;;;;5.45;4.40;;;9.20;96.70;;;;;;4868718;29;20119;-62
2023/12/11 02:11:26;;;;;;;6.10;4.85;;;9.20;96.70;;;;;;4887745;29;20056;-62
2023/12/11 02:13:54;;;;;;;4.78;4.28;;;9.20;96.70;;;;;;4877181;29;20051;-62
2023/12/11 02:16:24;;;;;;;6.47;4.63;;;9.20;96.70;;;;;;4879492;29;20579;-61
2023/12/11 02:18:54;;;;;;;5.22;4.32;;;9.20;96.70;;;;;;4868366;29;20076;-61
2023/12/11 02:21:24;;;;;;;5.05;4.22;;;9.20;96.70;;;;;;4871729;29;20127;-62
2023/12/11 02:24:01;;;;;;;5.80;5.00;;;9.20;96.70;;;;;;4875291;29;20059;-60
2023/12/11 02:26:32;;;;;;;8.05;5.80;;;9.20;96.70;;;;;;4872439;29;20047;-61
2023/12/11 02:29:01;;;;;;;6.90;5.28;;;9.20;96.70;;;;;;4893809;29;20056;-62
2023/12/11 02:31:29;;;;;;;6.03;5.20;;;9.20;96.70;;;;;;4864727;29;20108;-61
2023/12/11 02:33:57;;;;;;;7.65;5.82;;;9.20;96.70;;;;;;4872119;29;20400;-62
2023/12/11 02:36:26;;;;;;;7.50;5.00;;;9.20;96.70;;;;;;4895336;29;20055;-61
2023/12/11 02:38:55;;;;;;;6.20;4.90;;;9.20;96.70;;;;;;4893406;29;20055;-62
2023/12/11 02:41:24;;;;;;;7.40;5.28;;;9.20;96.70;;;;;;4881654;29;20414;-61
2023/12/11 02:43:56;;;;;;;6.43;4.55;;;9.20;96.70;;;;;;4897558;29;20052;-61
2023/12/11 02:46:26;;;;;;;7.68;4.90;;;9.20;96.70;;;;;;4898222;29;20052;-62
2023/12/11 02:48:55;;;;;;;7.03;4.63;;;9.20;96.70;;;;;;4914898;29;20079;-62
2023/12/11 02:51:24;;;;;;;5.90;3.75;;;9.20;96.70;;;;;;4892927;29;20048;-62
2023/12/11 02:53:53;;;;;;;6.65;4.30;;;9.10;96.70;;;;;;4889440;29;20048;-62
2023/12/11 02:56:21;;;;;;;4.28;3.72;;;9.20;96.70;;;;;;4912226;29;20067;-61
2023/12/11 02:58:50;;;;;;;7.20;4.07;;;9.20;96.70;;;;;;4911101;29;20052;-61
2023/12/11 03:01:22;;;;;;;4.05;3.65;;;9.10;96.70;;;;;;4885948;29;20073;-62
2023/12/11 03:03:51;;;;;;;4.97;4.25;;;9.10;96.70;;;;;;4896090;29;20059;-62
2023/12/11 03:06:21;;;;;;;7.00;4.05;;;9.10;96.70;;;;;;4900472;29;20044;-62
2023/12/11 03:08:49;;;;;;;4.07;3.55;;;9.20;96.70;;;;;;4902360;29;20056;-61
2023/12/11 03:11:18;;;;;;;5.28;3.83;;;9.20;96.70;;;;;;4887708;29;20054;-62
2023/12/11 03:13:47;;;;;;;4.47;3.65;;;9.20;96.70;;;;;;4897967;29;20048;-61
2023/12/11 03:16:16;;;;;;;8.48;4.32;;;9.20;96.70;;;;;;4883247;29;20044;-62
2023/12/11 03:18:47;;;;;;;4.97;3.78;;;9.20;96.70;;;;;;4891947;29;20040;-61
2023/12/11 03:24:14;;;;;;;4.88;3.38;;;9.30;96.70;;;;;;4917960;23;20051;-61
2023/12/11 03:26:44;;;;;;;5.45;3.53;;;9.20;96.70;;;;;;4884707;29;20113;-62
2023/12/11 03:29:13;;;;;;;4.70;3.40;;;9.20;96.70;;;;;;4895635;29;20040;-62
2023/12/11 03:31:44;;;;;;;4.32;3.55;;;9.30;96.70;;;;;;4890402;29;20126;-62
2023/12/11 03:34:14;;;;;;;4.53;3.28;;;9.30;96.70;;;;;;4926485;29;20048;-62
2023/12/11 03:36:42;;;;;;;5.18;3.20;;;9.30;96.70;;;;;;4893886;29;20079;-62
2023/12/11 03:39:11;;;;;;;4.85;3.25;;;9.30;96.70;;;;;;4885871;29;20044;-62
2023/12/11 03:41:39;;;;;;;5.22;3.88;;;9.40;96.70;;;;;;4884069;29;20263;-62
2023/12/11 03:44:08;;;;;;;4.75;3.42;;;9.40;96.70;;;;;;4895685;29;20050;-62
2023/12/11 03:46:37;;;;;;;4.10;2.90;;;9.30;96.70;;;;;;4885110;29;20044;-62
2023/12/11 03:49:05;;;;;;;5.15;3.45;;;9.40;96.70;;;;;;4889508;29;20056;-62
2023/12/11 03:51:36;;;;;;;4.75;3.15;;;9.30;96.70;;;;;;4895556;29;20466;-62
2023/12/11 03:54:05;;;;;;;6.35;3.53;;;9.40;96.70;;;;;;4908214;29;20044;-62
2023/12/11 03:56:33;;;;;;;4.72;3.35;;;9.40;96.70;;;;;;4915163;29;20053;-62
2023/12/11 03:59:02;;;;;;;4.25;2.92;;;9.50;96.70;;;;;;4868787;29;20055;-62
2023/12/11 04:01:30;;;;;;;6.85;3.40;;;9.40;96.70;;;;;;4880129;29;20059;-62
2023/12/11 04:04:00;;;;;;;5.07;3.22;;;9.50;96.70;;;;;;4889732;29;20059;-62
2023/12/11 04:06:28;;;;;;;5.82;3.05;;;9.50;96.70;;;;;;4893535;29;20052;-62
2023/12/11 04:08:58;;;;;;;4.07;2.78;;;9.50;96.70;;;;;;4894872;29;20047;-62
2023/12/11 04:11:27;;;;;;;4.30;2.90;;;9.50;96.70;;;;;;4894089;29;20060;-62
2023/12/11 04:13:56;;;;;;;4.60;2.78;;;9.60;96.70;;;;;;4916501;29;20086;-62
2023/12/11 04:16:24;;;;;;;6.55;3.35;;;9.60;96.70;;;;;;4879687;29;20056;-62
2023/12/11 04:19:12;;;;;;;6.00;3.42;;;9.60;96.70;;;;;;4897273;29;20052;-62
2023/12/11 04:21:41;;;;;;;6.22;3.03;;;9.50;96.70;;;;;;4912214;29;20052;-62
2023/12/11 04:24:11;;;;;;;6.43;3.13;;;9.50;96.70;;;;;;4872314;29;20052;-62
2023/12/11 04:26:42;;;;;;;4.47;2.70;;;9.60;96.70;;;;;;4878007;29;20072;-62
2023/12/11 04:29:11;;;;;;;6.03;2.95;;;9.60;96.70;;;;;;4873767;29;20096;-62
2023/12/11 04:31:40;;;;;;;4.25;3.38;;;9.60;96.70;;;;;;4872346;29;20431;-62
2023/12/11 04:34:08;;;;;;;6.13;3.00;;;9.60;96.70;;;;;;4874300;29;20151;-62
2023/12/11 04:36:42;;;;;;;4.97;2.92;;;9.60;96.70;;;;;;4878288;29;20048;-62
2023/12/11 04:39:12;;;;;;;4.30;3.03;;;9.60;96.70;;;;;;4859779;29;20099;-62
2023/12/11 04:41:41;;;;;;;5.15;3.33;;;9.60;96.70;;;;;;4873168;29;20079;-62
2023/12/11 04:44:10;;;;;;;3.28;2.78;;;9.60;96.70;;;;;;4880564;29;20642;-62
2023/12/11 04:46:39;;;;;;;4.07;3.15;;;9.60;96.70;;;;;;4879784;29;20044;-62
2023/12/11 04:49:08;;;;;;;5.50;3.30;;;9.60;96.70;;;;;;4868477;29;20464;-62
2023/12/11 04:51:37;;;;;;;5.25;3.10;;;9.60;96.70;;;;;;4885845;29;20559;-62
2023/12/11 04:54:05;;;;;;;4.95;2.65;;;9.60;96.70;;;;;;4880723;29;20459;-63
2023/12/11 04:56:40;;;;;;;5.35;3.30;;;9.60;96.70;;;;;;4896664;29;20036;-62
2023/12/11 04:59:08;;;;;;;5.65;3.17;;;9.60;96.70;;;;;;4893053;29;20054;-62
2023/12/11 05:01:36;;;;;;;4.93;2.75;;;9.60;96.70;;;;;;4884670;29;20100;-62
2023/12/11 05:04:05;;;;;;;6.22;3.38;;;9.60;96.70;;;;;;4875086;29;20054;-62
2023/12/11 05:06:33;;;;;;;3.85;3.00;;;9.70;96.70;;;;;;4874629;29;20048;-62
2023/12/11 05:09:02;;;;;;;4.85;3.10;;;9.70;96.70;;;;;;4872168;29;20368;-62
2023/12/11 05:11:30;;;;;;;3.97;3.28;;;9.70;96.70;;;;;;4880689;29;21195;-62
2023/12/11 05:14:01;;;;;;;5.45;3.00;;;9.70;96.70;;;;;;4871734;29;20058;-63
2023/12/11 05:16:30;;;;;;;3.83;2.78;;;9.70;96.70;;;;;;4872610;29;20049;-62
2023/12/11 05:18:59;;;;;;;4.97;2.70;;;9.70;96.70;;;;;;4864243;29;20469;-62
2023/12/11 05:21:28;;;;;;;3.53;2.67;;;9.70;96.70;;;;;;4875948;29;20586;-61
2023/12/11 05:23:56;;;;;;;5.65;2.80;;;9.80;96.70;;;;;;4875074;29;20584;-61
2023/12/11 05:26:45;;;;;;;3.95;2.67;;;9.80;96.70;;;;;;4865596;29;20052;-61
2023/12/11 05:29:16;;;;;;;3.72;2.78;;;9.70;96.70;;;;;;4877580;29;20144;-61
2023/12/11 05:31:45;;;;;;;4.80;2.95;;;9.70;96.70;;;;;;4874796;29;20733;-61
2023/12/11 05:34:15;;;;;;;4.22;2.92;;;9.80;96.70;;;;;;4880594;29;20252;-61
2023/12/11 05:36:44;;;;;;;4.50;3.10;;;9.80;96.70;;;;;;4865965;29;20049;-61
2023/12/11 05:39:13;;;;;;;5.97;3.22;;;9.80;96.70;;;;;;4858772;29;20117;-61
2023/12/11 05:41:43;;;;;;;4.82;2.90;;;9.80;96.70;;;;;;4857868;29;20752;-62
2023/12/11 05:44:12;;;;;;;6.90;2.97;;;9.80;96.70;;;;;;4853327;29;20048;-61
2023/12/11 05:46:43;;;;;;;5.93;3.03;;;9.80;96.70;;;;;;4854378;29;20737;-61
2023/12/11 05:49:12;;;;;;;5.07;2.95;;;9.80;96.70;;;;;;4865788;29;20451;-61
2023/12/11 05:51:41;;;;;;;4.45;3.03;;;9.80;96.70;;;;;;4854690;29;20049;-61
2023/12/11 05:54:10;;;;;;;4.07;3.10;;;9.80;96.70;;;;;;4879254;29;20522;-61
2023/12/11 05:56:41;;;;;;;5.32;3.10;;;9.80;96.70;;;;;;4889922;29;20047;-61
2023/12/11 05:59:10;;;;;;;5.15;3.03;;;9.80;96.70;;;;;;4895245;29;20479;-62
2023/12/11 06:01:39;;;;;;;6.72;3.55;;;9.80;96.70;;;;;;4890154;29;20403;-61
2023/12/11 06:04:11;;;;;;;4.68;3.38;;;9.80;96.70;;;;;;4892133;29;20044;-61
2023/12/11 06:06:40;;;;;;;4.93;3.55;;;9.80;96.70;;;;;;4897031;29;20054;-61
2023/12/11 06:09:09;;;;;;;5.53;3.63;;;9.90;96.70;;;;;;4905044;29;20519;-62
2023/12/11 06:11:37;;;;;;;7.93;4.05;;;9.90;96.70;;;;;;4891122;29;20471;-61
2023/12/11 06:14:06;;;;;;;6.03;3.97;;;9.90;96.70;;;;;;4896314;29;20577;-61
2023/12/11 06:16:35;;;;;;;5.95;4.47;;;9.90;96.70;;;;;;4909840;29;20459;-61
2023/12/11 06:19:03;;;;;;;6.03;3.90;;;9.90;96.70;;;;;;4885314;29;20391;-61
2023/12/11 06:21:34;;;;;;;6.63;4.43;;;9.90;96.70;;;;;;4885732;29;20549;-61
2023/12/11 06:24:06;;;;;;;7.72;4.93;;;9.90;96.70;;;;;;4929866;29;20779;-61
2023/12/11 06:26:39;;;;;;;6.85;4.45;;;9.90;96.70;;;;;;4894447;29;20111;-61
2023/12/11 06:29:08;;;;;;;6.68;4.50;;;9.90;96.70;;;;;;4882137;29;20056;-61
2023/12/11 06:31:37;;;;;;;6.82;4.85;;;10.00;96.70;;;;;;4888852;29;20040;-61
2023/12/11 06:34:05;;;;;;;6.78;4.72;;;10.00;96.70;;;;;;4908883;29;20055;-61
2023/12/11 06:36:37;;;;;;;6.15;4.97;;;9.90;96.70;;;;;;4899277;29;21039;-61
2023/12/11 06:39:05;;;;;;;5.72;4.88;;;10.00;96.70;;;;;;4880266;29;20123;-61
2023/12/11 06:41:45;;;;;;;6.43;4.97;;;10.00;96.70;;;;;;4887485;29;20054;-61
2023/12/11 06:44:14;;;;;;;8.52;4.57;;;10.00;96.70;;;;;;4857933;29;20051;-61
2023/12/11 06:46:42;;;;;;;6.97;5.05;;;10.00;96.70;;;;;;4905296;29;20032;-61
2023/12/11 06:49:11;;;;;;;4.82;4.30;;;10.00;96.70;;;;;;4897938;29;20655;-62
2023/12/11 06:51:43;;;;;;;6.78;4.72;;;10.00;96.70;;;;;;4891280;29;20123;-61
2023/12/11 06:54:15;;;;;;;7.63;5.65;;;10.00;96.70;;;;;;4895307;29;20387;-61
2023/12/11 06:56:44;;;;;;;7.68;5.30;;;10.10;96.70;;;;;;4890081;29;20084;-61
2023/12/11 06:59:12;;;;;;;5.40;4.60;;;10.10;96.70;;;;;;4890478;29;20067;-61
2023/12/11 07:01:41;;;;;;;6.50;5.28;;;10.10;96.70;;;;;;4889799;29;20509;-61
2023/12/11 07:04:10;;;;;;;6.30;5.05;;;10.10;96.70;;;;;;4889520;29;20492;-61
2023/12/11 07:06:39;;;;;;;6.40;5.13;;;10.10;96.70;;;;;;4900791;29;20059;-61
2023/12/11 07:09:10;;;;;;;7.68;5.15;;;10.10;96.70;;;;;;4898654;29;20047;-62
2023/12/11 07:11:41;;;;;;;8.57;5.47;;;10.10;96.70;;;;;;4887611;29;20055;-61
2023/12/11 07:14:10;;;;;;;12.93;7.38;;;10.20;96.70;;;;;;4887903;29;20056;-61
2023/12/11 07:16:39;;;;;;;20.90;12.98;;;10.20;96.70;;;;;;4891360;29;20476;-61
2023/12/11 07:19:08;;;;;;;11.43;8.30;;;10.20;96.70;;;;;;4909665;29;20110;-61
2023/12/11 07:21:41;;;;;;;11.05;7.90;;;10.20;96.70;;;;;;4897702;29;20110;-61
2023/12/11 07:24:13;;;;;;;9.88;6.55;;;10.20;96.70;;;;;;4879467;29;20104;-62
2023/12/11 07:26:42;;;;;;;8.90;6.30;;;10.20;96.70;;;;;;4873387;29;20122;-61
2023/12/11 07:29:11;;;;;;;7.88;6.07;;;10.20;96.70;;;;;;4888047;29;20043;-61
2023/12/11 07:31:46;;;;;;;9.70;6.95;;;10.20;96.70;;;;;;4902607;29;20059;-61
2023/12/11 07:34:14;;;;;;;8.25;5.45;;;10.20;96.70;;;;;;4883696;29;20051;-62
2023/12/11 07:36:44;;;;;;;8.82;5.88;;;10.20;96.70;;;;;;4896962;29;20051;-62
2023/12/11 07:39:14;;;;;;;8.45;5.50;;;10.20;96.70;;;;;;4885839;29;20349;-62
2023/12/11 07:41:43;;;;;;;7.40;5.60;;;10.30;96.70;;;;;;4893464;29;20437;-62
2023/12/11 07:44:12;;;;;;;7.32;5.88;;;10.30;96.70;;;;;;4897155;29;20099;-62
2023/12/11 07:46:40;;;;;;;7.95;5.80;;;10.30;96.70;;;;;;4886772;29;20060;-62
2023/12/11 07:49:13;;;;;;;5.90;5.30;;;10.30;96.70;;;;;;4891490;29;20051;-61
2023/12/11 07:51:43;;;;;;;8.80;6.95;;;10.30;96.70;;;;;;4902546;29;20648;-62
2023/12/11 07:54:14;;;;;;;11.90;8.27;;;10.30;96.70;;;;;;4894392;29;20048;-62
2023/12/11 07:56:43;;;;;;;13.52;10.10;;;10.40;96.70;;;;;;4894949;29;20075;-62
2023/12/11 07:59:12;;;;;;;8.15;6.90;;;10.40;96.70;;;;;;4901226;29;20156;-62
2023/12/11 08:01:40;;;;;;;8.85;7.10;;;10.40;96.70;;;;;;4897638;29;20068;-61
2023/12/11 08:04:09;;;;;;;8.55;6.82;;;10.40;96.70;;;;;;4893030;29;20062;-62
2023/12/11 08:06:40;;;;;;;9.43;6.70;;;10.40;96.70;;;;;;4893030;29;20052;-61
2023/12/11 08:09:13;;;;;;;8.32;6.18;;;10.40;96.70;;;;;;4900362;29;20051;-62
2023/12/11 08:11:45;;;;;;;8.02;5.60;;;10.40;96.70;;;;;;4900477;29;20107;-62
2023/12/11 08:14:14;;;;;;;8.60;5.05;;;10.50;96.70;;;;;;4899338;29;20091;-61
2023/12/11 08:16:50;;;;;;;18.38;8.55;;;10.50;96.70;;;;;;4889097;29;20056;-61
2023/12/11 08:19:19;;;;;;;19.95;7.25;;;10.40;96.70;;;;;;4890295;29;20044;-62
2023/12/11 08:21:48;;;;;;;8.10;5.40;;;10.50;96.70;;;;;;4919847;29;20047;-61
2023/12/11 08:24:17;;;;;;;8.00;4.68;;;10.50;96.70;;;;;;4922329;29;20115;-62
2023/12/11 08:26:48;;;;;;;9.13;4.60;;;10.50;96.70;;;;;;4903874;29;20851;-61
2023/12/11 08:29:19;;;;;;;10.05;5.20;;;10.50;96.70;;;;;;4927590;29;20067;-62
2023/12/11 08:31:50;;;;;;;5.53;3.83;;;10.50;96.70;;;;;;4924468;29;20599;-62
2023/12/11 08:34:20;;;;;;;5.78;3.67;;;10.50;96.70;;;;;;4925268;29;20050;-61
2023/12/11 08:36:49;;;;;;;7.05;4.20;;;10.60;96.70;;;;;;4922400;29;20538;-62
2023/12/11 08:39:18;;;;;;;7.35;3.95;;;10.50;96.70;;;;;;4927156;29;20036;-61
2023/12/11 08:41:50;;;;;;;8.77;4.10;;;10.50;96.70;;;;;;4909995;29;20058;-61
2023/12/11 08:44:19;;;;;;;9.13;4.07;;;10.60;96.70;;;;;;4920086;29;20425;-60
2023/12/11 08:46:48;;;;;;;5.60;4.07;;;10.60;96.70;;;;;;4899870;29;20491;-62
2023/12/11 08:49:18;;;;;;;8.43;5.13;;;10.60;96.70;;;;;;4918599;29;20036;-62
2023/12/11 08:51:47;;;;;;;9.25;5.30;;;10.60;96.70;;;;;;4917543;29;20060;-62
2023/12/11 08:54:16;;;;;;;12.60;5.88;;;10.60;96.70;;;;;;4934879;29;20047;-62
2023/12/11 08:56:44;;;;;;;9.93;5.90;;;10.50;96.70;;;;;;4917581;29;20063;-62
2023/12/11 08:59:20;;;;;;;10.50;6.97;;;10.60;96.70;;;;;;4933366;29;20043;-62
2023/12/11 09:01:49;;;;;;;9.55;6.93;;;10.60;96.70;;;;;;4911338;29;20509;-62
2023/12/11 09:04:18;;;;;;;7.65;5.55;;;10.60;96.70;;;;;;4909371;29;20159;-62
2023/12/11 09:06:47;;;;;;;9.15;5.47;;;10.70;96.70;;;;;;4926526;29;20056;-62
2023/12/11 09:09:15;;;;;;;10.30;5.85;;;10.70;96.70;;;;;;4923737;29;20060;-62
2023/12/11 09:11:45;;;;;;;6.40;5.05;;;10.70;96.70;;;;;;4924479;29;20451;-63
2023/12/11 09:14:16;;;;;;;13.60;6.15;;;10.70;96.70;;;;;;4922275;29;20094;-62
2023/12/11 09:16:45;;;;;;;11.23;7.15;;;10.70;96.70;;;;;;4908081;29;20051;-62
2023/12/11 09:19:14;;;;;;;10.18;6.38;;;10.70;96.70;;;;;;4933971;29;20051;-61
2023/12/11 09:21:44;;;;;;;10.10;6.47;;;10.80;96.70;;;;;;4934336;29;20051;-62
2023/12/11 09:24:13;;;;;;;9.20;5.97;;;10.80;96.70;;;;;;4925403;29;20518;-62
2023/12/11 09:26:42;;;;;;;8.18;5.72;;;10.80;96.70;;;;;;4932224;29;20108;-62
2023/12/11 09:29:10;;;;;;;11.23;6.32;;;10.80;96.70;;;;;;4907160;29;20059;-62
2023/12/11 09:31:43;;;;;;;7.63;5.95;;;10.80;96.70;;;;;;4924154;29;20052;-62
2023/12/11 09:34:13;;;;;;;9.77;6.50;;;10.80;96.70;;;;;;4906932;29;20056;-62
2023/12/11 09:36:42;;;;;;;9.48;6.22;;;10.90;96.70;;;;;;4912017;29;20064;-61
2023/12/11 09:39:12;;;;;;;11.98;6.43;;;10.90;96.70;;;;;;4898501;29;20048;-62
2023/12/11 09:41:47;;;;;;;7.53;6.05;;;10.90;96.70;;;;;;4865077;29;20065;-62
2023/12/11 09:44:20;;;;;;;11.60;5.65;;;10.90;96.70;;;;;;4829551;29;20061;-62
2023/12/11 09:46:56;;;;;;;8.65;5.45;;;10.90;96.70;;;;;;4872619;29;20071;-62
2023/12/11 09:49:25;;;;;;;6.40;4.63;;;10.90;96.70;;;;;;4864013;29;20459;-62
2023/12/11 09:51:58;;;;;;;7.07;5.03;;;11.00;96.70;;;;;;4838438;29;20053;-62
2023/12/11 09:54:27;;;;;;;6.70;4.68;;;11.00;96.70;;;;;;4863083;29;20056;-62
2023/12/11 09:56:57;;;;;;;7.85;5.00;;;11.10;96.70;;;;;;4867627;29;20072;-62
2023/12/11 09:59:27;;;;;;;7.15;4.97;;;11.10;96.70;;;;;;4872670;29;20045;-63
2023/12/11 10:02:00;;;;;;;9.35;5.10;;;11.10;96.70;;;;;;4833325;29;20570;-62
2023/12/11 10:04:30;;;;;;;10.65;5.50;;;11.20;96.70;;;;;;4864772;29;20053;-62
2023/12/11 10:06:59;;;;;;;13.40;7.82;;;11.20;96.70;;;;;;4867099;29;20133;-62
2023/12/11 10:09:28;;;;;;;18.63;12.05;;;11.30;96.70;;;;;;4841941;29;20069;-62
2023/12/11 10:11:59;;;;;;;14.68;8.43;;;11.30;96.70;;;;;;4859158;29;20565;-62
2023/12/11 10:14:30;;;;;;;11.88;7.72;;;11.20;96.70;;;;;;4918096;29;20057;-62
2023/12/11 10:17:15;;;;;;;10.70;6.05;;;11.20;96.70;;;;;;4904409;29;20107;-61
2023/12/11 10:19:44;;;;;;;10.88;6.07;;;11.30;96.70;;;;;;4891289;29;20103;-63
2023/12/11 10:22:26;;;;;;;10.10;5.60;;;11.30;96.70;;;;;;4921846;29;20139;-62
2023/12/11 10:24:57;;;;;;;6.50;5.13;;;11.30;96.70;;;;;;4919518;29;20049;-62
2023/12/11 10:27:27;;;;;;;8.63;5.82;;;11.30;96.70;;;;;;4901591;29;20059;-62
2023/12/11 10:30:12;;;;;;;12.15;6.88;;;11.40;96.70;;;;;;4930999;29;20048;-62
2023/12/11 10:32:43;;;;;;;11.88;6.82;;;11.40;96.70;;;;;;4919689;29;20047;-62
2023/12/11 10:35:23;;;;;;;11.88;6.40;;;11.40;96.70;;;;;;4920075;29;20056;-62
2023/12/11 10:38:00;;;;;;;8.68;5.95;;;11.40;96.70;;;;;;4906675;29;20090;-62
2023/12/11 10:40:40;;;;;;;10.60;6.10;;;11.40;96.70;;;;;;4917531;29;20060;-61
2023/12/11 10:43:09;;;;;;;16.63;7.68;;;11.40;96.70;;;;;;4933663;29;20404;-62
2023/12/11 10:45:38;;;;;;;36.97;10.20;;;11.40;96.70;;;;;;4915106;29;20048;-62
2023/12/11 10:48:09;;;;;;;11.43;6.35;;;11.40;96.70;;;;;;4906126;29;20683;-62
2023/12/11 10:50:38;;;;;;;12.88;6.30;;;11.40;96.70;;;;;;4910927;29;20451;-62
2023/12/11 10:53:08;;;;;;;15.50;6.20;;;11.40;96.70;;;;;;4891445;29;20062;-62
2023/12/11 10:55:37;;;;;;;7.97;5.90;;;11.40;96.70;;;;;;4923843;29;20135;-62
2023/12/11 10:58:08;;;;;;;15.85;6.80;;;11.40;96.70;;;;;;4919799;29;20059;-62
2023/12/11 11:00:39;;;;;;;23.70;7.70;;;11.40;96.70;;;;;;4932967;29;20048;-62
2023/12/11 11:03:13;;;;;;;35.20;9.02;;;11.40;96.70;;;;;;4934932;29;20402;-62
2023/12/11 11:05:43;;;;;;;10.32;6.15;;;11.40;96.70;;;;;;4918705;29;20142;-61
2023/12/11 11:08:21;;;;;;;8.98;5.93;;;11.40;96.70;;;;;;4930289;29;20056;-62
2023/12/11 11:10:54;;;;;;;10.30;6.45;;;11.40;96.70;;;;;;4926936;29;20065;-62
2023/12/11 11:13:30;;;;;;;9.32;7.38;;;11.40;96.70;;;;;;4935012;29;20075;-62
2023/12/11 11:15:58;;;;;;;12.48;7.95;;;11.40;96.70;;;;;;4918799;29;20052;-62
2023/12/11 11:18:29;;;;;;;9.35;6.93;;;11.50;96.70;;;;;;4929714;29;20161;-61
2023/12/11 11:21:11;;;;;;;9.60;7.10;;;11.50;96.70;;;;;;4933668;29;20049;-62
2023/12/11 11:23:42;;;;;;;8.82;6.55;;;11.50;96.70;;;;;;4899796;29;20071;-62
2023/12/11 11:26:33;;;;;;;11.93;7.90;;;11.50;96.70;;;;;;4873646;29;20067;-62
2023/12/11 11:29:03;;;;;;;8.48;6.80;;;11.50;96.70;;;;;;4904026;29;20057;-62
2023/12/11 11:31:52;;;;;;;10.68;6.63;;;11.40;96.70;;;;;;4909710;29;20052;-62
2023/12/11 11:34:46;;;;;;;10.15;7.10;;;11.40;96.70;;;;;;4884359;29;20059;-62
2023/12/11 11:37:18;;;;;;;12.25;9.23;;;11.40;96.70;;;;;;4908308;29;20472;-62
2023/12/11 11:39:57;;;;;;;9.18;7.88;;;11.50;96.70;;;;;;4888707;29;20049;-62
2023/12/11 11:42:28;;;;;;;9.50;7.38;;;11.50;96.70;;;;;;4890791;29;20064;-62
2023/12/11 11:45:00;;;;;;;13.32;9.23;;;11.50;96.70;;;;;;4883669;29;20055;-62
2023/12/11 11:47:29;;;;;;;12.98;8.32;;;11.50;96.70;;;;;;4899374;29;20072;-62
2023/12/11 11:50:09;;;;;;;10.88;9.70;;;11.50;96.70;;;;;;4887392;29;20506;-62
2023/12/11 11:52:41;;;;;;;9.25;7.13;;;11.50;96.70;;;;;;4886437;29;20081;-63
2023/12/11 11:55:16;;;;;;;7.35;6.45;;;11.50;96.70;;;;;;4906777;29;20052;-62
2023/12/11 11:57:44;;;;;;;8.20;6.38;;;11.50;96.70;;;;;;4891605;29;21318;-61
2023/12/11 12:00:14;;;;;;;7.38;6.43;;;11.50;96.70;;;;;;4903057;29;20040;-62
2023/12/11 12:02:42;;;;;;;7.88;5.90;;;11.50;96.70;;;;;;4895280;29;20052;-62
2023/12/11 12:05:16;;;;;;;7.05;6.38;;;11.50;96.70;;;;;;4899937;29;20048;-62
2023/12/11 12:07:45;;;;;;;7.47;6.28;;;11.60;96.70;;;;;;4900067;29;20464;-62
2023/12/11 12:10:17;;;;;;;10.02;6.88;;;11.60;96.70;;;;;;4896070;29;20131;-62
2023/12/11 12:12:49;;;;;;;6.80;5.50;;;11.60;96.70;;;;;;4893712;29;20108;-63
2023/12/11 12:15:19;;;;;;;6.97;5.65;;;11.60;96.70;;;;;;4900723;29;20144;-62
2023/12/11 12:17:48;;;;;;;7.85;6.50;;;11.60;96.70;;;;;;4910669;29;20115;-62
2023/12/11 12:20:20;;;;;;;5.82;5.18;;;11.60;96.70;;;;;;4908637;29;20123;-62
2023/12/11 12:22:57;;;;;;;6.32;5.65;;;11.60;96.70;;;;;;4886513;29;20384;-62
2023/12/11 12:25:29;;;;;;;6.63;4.82;;;11.60;96.70;;;;;;4915904;29;20410;-62
2023/12/11 12:28:01;;;;;;;7.10;5.22;;;11.60;96.70;;;;;;4899028;29;20116;-62
2023/12/11 12:30:32;;;;;;;6.35;3.92;;;11.60;96.70;;;;;;4909322;29;20059;-62
2023/12/11 12:33:04;;;;;;;8.40;4.13;;;11.60;96.70;;;;;;4916312;29;20134;-62
2023/12/11 12:35:36;;;;;;;11.10;4.35;;;11.70;96.70;;;;;;4898263;29;20068;-63
2023/12/11 12:38:07;;;;;;;12.55;4.00;;;11.70;96.70;;;;;;4919687;29;20075;-61
2023/12/11 12:40:35;;;;;;;5.97;3.38;;;11.70;96.70;;;;;;4897029;29;20047;-61
2023/12/11 12:43:10;;;;;;;10.82;3.80;;;11.70;96.70;;;;;;4917336;29;20040;-62
2023/12/11 12:45:39;;;;;;;6.22;2.83;;;11.70;96.70;;;;;;4898942;29;20554;-61
2023/12/11 12:48:08;;;;;;;7.07;2.50;;;11.70;96.70;;;;;;4920547;29;20048;-63
2023/12/11 12:50:39;;;;;;;5.38;2.45;;;11.70;96.70;;;;;;4917317;29;20036;-60
2023/12/11 12:53:13;;;;;;;8.18;2.92;;;11.70;96.70;;;;;;4918780;29;20048;-60
2023/12/11 12:55:42;;;;;;;5.07;3.03;;;11.70;96.70;;;;;;4916822;29;20147;-60
2023/12/11 12:58:11;;;;;;;18.40;3.95;;;11.70;96.70;;;;;;4890926;29;20104;-60
2023/12/11 13:00:44;;;;;;;11.52;4.00;;;11.70;96.70;;;;;;4897572;29;20131;-60
2023/12/11 13:03:13;;;;;;;12.93;3.97;;;11.70;96.70;;;;;;4915810;29;20050;-61
2023/12/11 13:05:44;;;;;;;6.57;3.30;;;11.70;96.70;;;;;;4893865;29;20082;-60
2023/12/11 13:08:14;;;;;;;7.55;3.70;;;11.70;96.70;;;;;;4897904;29;20055;-59